sensor_id;sensor_type;location;lat;lon;timestamp;P1;durP1;ratioP1;P2;durP2;ratioP2
29320;SDS011;16323;51.130;6.612;2022-12-07T00:00:00;2.92;;;2.10;;
29320;SDS011;16323;51.130;6.612;2022-12-07T00:02:28;2.58;;;1.92;;
29320;SDS011;16323;51.130;6.612;2022-12-07T00:04:55;2.42;;;1.80;;
29320;SDS011;16323;51.130;6.612;2022-12-07T00:07:22;3.17;;;1.95;;
29320;SDS011;16323;51.130;6.612;2022-12-07T00:09:48;3.20;;;2.03;;
29320;SDS011;16323;51.130;6.612;2022-12-07T00:12:15;2.97;;;1.73;;
29320;SDS011;16323;51.130;6.612;2022-12-07T00:14:42;3.55;;;2.25;;
29320;SDS011;16323;51.130;6.612;2022-12-07T00:17:09;4.18;;;1.92;;
29320;SDS011;16323;51.130;6.612;2022-12-07T00:19:37;2.95;;;2.00;;
29320;SDS011;16323;51.130;6.612;2022-12-07T00:22:04;4.20;;;2.10;;
29320;SDS011;16323;51.130;6.612;2022-12-07T00:24:30;2.47;;;1.98;;
29320;SDS011;16323;51.130;6.612;2022-12-07T00:26:57;2.55;;;1.90;;
29320;SDS011;16323;51.130;6.612;2022-12-07T00:29:24;2.92;;;2.10;;
29320;SDS011;16323;51.130;6.612;2022-12-07T00:31:51;4.05;;;2.33;;
29320;SDS011;16323;51.130;6.612;2022-12-07T00:34:18;3.05;;;2.00;;
29320;SDS011;16323;51.130;6.612;2022-12-07T00:36:48;2.55;;;1.80;;
29320;SDS011;16323;51.130;6.612;2022-12-07T00:39:16;3.30;;;2.10;;
29320;SDS011;16323;51.130;6.612;2022-12-07T00:41:43;2.90;;;2.08;;
29320;SDS011;16323;51.130;6.612;2022-12-07T00:44:10;3.58;;;2.50;;
29320;SDS011;16323;51.130;6.612;2022-12-07T00:46:36;3.53;;;2.38;;
29320;SDS011;16323;51.130;6.612;2022-12-07T00:49:03;4.35;;;2.70;;
29320;SDS011;16323;51.130;6.612;2022-12-07T00:51:30;4.75;;;2.63;;
29320;SDS011;16323;51.130;6.612;2022-12-07T00:53:58;2.70;;;1.98;;
29320;SDS011;16323;51.130;6.612;2022-12-07T00:56:26;3.22;;;2.00;;
29320;SDS011;16323;51.130;6.612;2022-12-07T00:58:53;4.88;;;2.92;;
29320;SDS011;16323;51.130;6.612;2022-12-07T01:01:21;3.05;;;2.25;;
29320;SDS011;16323;51.130;6.612;2022-12-07T01:03:49;3.00;;;2.20;;
29320;SDS011;16323;51.130;6.612;2022-12-07T01:06:16;3.20;;;2.20;;
29320;SDS011;16323;51.130;6.612;2022-12-07T01:08:44;3.92;;;2.60;;
29320;SDS011;16323;51.130;6.612;2022-12-07T01:11:13;3.47;;;2.63;;
29320;SDS011;16323;51.130;6.612;2022-12-07T01:13:41;3.35;;;2.50;;
29320;SDS011;16323;51.130;6.612;2022-12-07T01:16:09;3.60;;;2.55;;
29320;SDS011;16323;51.130;6.612;2022-12-07T01:18:38;3.75;;;2.60;;
29320;SDS011;16323;51.130;6.612;2022-12-07T01:21:06;4.05;;;2.63;;
29320;SDS011;16323;51.130;6.612;2022-12-07T01:23:35;5.03;;;2.60;;
29320;SDS011;16323;51.130;6.612;2022-12-07T01:26:02;3.53;;;2.72;;
29320;SDS011;16323;51.130;6.612;2022-12-07T01:28:32;3.70;;;3.10;;
29320;SDS011;16323;51.130;6.612;2022-12-07T01:31:00;3.83;;;2.75;;
29320;SDS011;16323;51.130;6.612;2022-12-07T01:33:28;4.05;;;2.78;;
29320;SDS011;16323;51.130;6.612;2022-12-07T01:36:00;4.72;;;3.05;;
29320;SDS011;16323;51.130;6.612;2022-12-07T01:38:27;4.47;;;2.40;;
29320;SDS011;16323;51.130;6.612;2022-12-07T01:40:55;3.58;;;2.63;;
29320;SDS011;16323;51.130;6.612;2022-12-07T01:43:22;3.80;;;2.80;;
29320;SDS011;16323;51.130;6.612;2022-12-07T01:45:52;3.72;;;2.60;;
29320;SDS011;16323;51.130;6.612;2022-12-07T01:48:20;4.82;;;2.75;;
29320;SDS011;16323;51.130;6.612;2022-12-07T01:50:50;3.72;;;2.75;;
29320;SDS011;16323;51.130;6.612;2022-12-07T01:53:20;3.72;;;2.78;;
29320;SDS011;16323;51.130;6.612;2022-12-07T01:55:50;3.65;;;2.83;;
29320;SDS011;16323;51.130;6.612;2022-12-07T01:58:19;3.72;;;2.70;;
29320;SDS011;16323;51.130;6.612;2022-12-07T02:00:47;3.92;;;2.83;;
29320;SDS011;16323;51.130;6.612;2022-12-07T02:03:16;3.45;;;2.25;;
29320;SDS011;16323;51.130;6.612;2022-12-07T02:05:46;4.13;;;2.70;;
29320;SDS011;16323;51.130;6.612;2022-12-07T02:08:14;4.07;;;2.90;;
29320;SDS011;16323;51.130;6.612;2022-12-07T02:10:41;4.55;;;3.08;;
29320;SDS011;16323;51.130;6.612;2022-12-07T02:13:08;6.00;;;2.70;;
29320;SDS011;16323;51.130;6.612;2022-12-07T02:15:43;3.80;;;2.78;;
29320;SDS011;16323;51.130;6.612;2022-12-07T02:18:22;3.95;;;2.97;;
29320;SDS011;16323;51.130;6.612;2022-12-07T02:20:58;3.92;;;2.65;;
29320;SDS011;16323;51.130;6.612;2022-12-07T02:26:52;5.47;;;2.75;;
29320;SDS011;16323;51.130;6.612;2022-12-07T02:29:35;3.85;;;2.83;;
29320;SDS011;16323;51.130;6.612;2022-12-07T02:32:07;3.85;;;2.70;;
29320;SDS011;16323;51.130;6.612;2022-12-07T02:34:48;4.30;;;3.05;;
29320;SDS011;16323;51.130;6.612;2022-12-07T02:37:19;4.22;;;3.00;;
29320;SDS011;16323;51.130;6.612;2022-12-07T02:39:55;6.05;;;2.95;;
29320;SDS011;16323;51.130;6.612;2022-12-07T02:42:28;5.03;;;2.97;;
29320;SDS011;16323;51.130;6.612;2022-12-07T02:45:01;3.53;;;2.58;;
29320;SDS011;16323;51.130;6.612;2022-12-07T02:47:31;4.07;;;2.70;;
29320;SDS011;16323;51.130;6.612;2022-12-07T02:50:02;5.93;;;2.72;;
29320;SDS011;16323;51.130;6.612;2022-12-07T02:52:30;3.83;;;2.78;;
29320;SDS011;16323;51.130;6.612;2022-12-07T02:54:57;4.22;;;2.88;;
29320;SDS011;16323;51.130;6.612;2022-12-07T02:57:31;4.32;;;2.75;;
29320;SDS011;16323;51.130;6.612;2022-12-07T03:00:11;4.30;;;2.95;;
29320;SDS011;16323;51.130;6.612;2022-12-07T03:02:46;5.65;;;3.13;;
29320;SDS011;16323;51.130;6.612;2022-12-07T03:05:21;3.65;;;2.92;;
29320;SDS011;16323;51.130;6.612;2022-12-07T03:08:00;5.05;;;3.03;;
29320;SDS011;16323;51.130;6.612;2022-12-07T03:10:33;4.57;;;2.90;;
29320;SDS011;16323;51.130;6.612;2022-12-07T03:13:07;4.82;;;3.20;;
29320;SDS011;16323;51.130;6.612;2022-12-07T03:15:41;3.63;;;2.60;;
29320;SDS011;16323;51.130;6.612;2022-12-07T03:18:12;4.30;;;2.92;;
29320;SDS011;16323;51.130;6.612;2022-12-07T03:20:44;4.65;;;3.00;;
29320;SDS011;16323;51.130;6.612;2022-12-07T03:23:16;3.75;;;2.80;;
29320;SDS011;16323;51.130;6.612;2022-12-07T03:25:46;4.03;;;2.92;;
29320;SDS011;16323;51.130;6.612;2022-12-07T03:28:16;5.63;;;3.00;;
29320;SDS011;16323;51.130;6.612;2022-12-07T03:30:47;2.70;;;2.38;;
29320;SDS011;16323;51.130;6.612;2022-12-07T03:33:19;3.20;;;2.50;;
29320;SDS011;16323;51.130;6.612;2022-12-07T03:35:52;4.20;;;2.60;;
29320;SDS011;16323;51.130;6.612;2022-12-07T03:38:25;4.72;;;2.80;;
29320;SDS011;16323;51.130;6.612;2022-12-07T03:40:59;3.70;;;2.70;;
29320;SDS011;16323;51.130;6.612;2022-12-07T03:43:30;4.15;;;2.72;;
29320;SDS011;16323;51.130;6.612;2022-12-07T03:46:00;3.88;;;2.88;;
29320;SDS011;16323;51.130;6.612;2022-12-07T03:48:36;4.88;;;3.17;;
29320;SDS011;16323;51.130;6.612;2022-12-07T03:51:08;4.55;;;2.85;;
29320;SDS011;16323;51.130;6.612;2022-12-07T03:53:40;3.75;;;2.50;;
29320;SDS011;16323;51.130;6.612;2022-12-07T03:56:12;4.50;;;2.90;;
29320;SDS011;16323;51.130;6.612;2022-12-07T03:58:40;4.93;;;3.10;;
29320;SDS011;16323;51.130;6.612;2022-12-07T04:01:09;5.70;;;2.97;;
29320;SDS011;16323;51.130;6.612;2022-12-07T04:03:36;3.03;;;2.42;;
29320;SDS011;16323;51.130;6.612;2022-12-07T04:06:03;5.07;;;2.92;;
29320;SDS011;16323;51.130;6.612;2022-12-07T04:08:31;3.75;;;2.60;;
29320;SDS011;16323;51.130;6.612;2022-12-07T04:10:57;3.78;;;2.85;;
29320;SDS011;16323;51.130;6.612;2022-12-07T04:13:24;4.70;;;2.80;;
29320;SDS011;16323;51.130;6.612;2022-12-07T04:15:51;3.72;;;2.72;;
29320;SDS011;16323;51.130;6.612;2022-12-07T04:18:19;4.32;;;2.85;;
29320;SDS011;16323;51.130;6.612;2022-12-07T04:20:46;5.68;;;2.97;;
29320;SDS011;16323;51.130;6.612;2022-12-07T04:23:13;3.63;;;2.80;;
29320;SDS011;16323;51.130;6.612;2022-12-07T04:25:40;4.68;;;2.88;;
29320;SDS011;16323;51.130;6.612;2022-12-07T04:28:07;3.53;;;2.38;;
29320;SDS011;16323;51.130;6.612;2022-12-07T04:30:33;4.07;;;2.85;;
29320;SDS011;16323;51.130;6.612;2022-12-07T04:33:00;3.53;;;2.47;;
29320;SDS011;16323;51.130;6.612;2022-12-07T04:35:28;4.13;;;2.67;;
29320;SDS011;16323;51.130;6.612;2022-12-07T04:37:55;3.60;;;2.35;;
29320;SDS011;16323;51.130;6.612;2022-12-07T04:40:22;5.10;;;2.55;;
29320;SDS011;16323;51.130;6.612;2022-12-07T04:42:49;4.15;;;2.50;;
29320;SDS011;16323;51.130;6.612;2022-12-07T04:45:15;4.05;;;2.60;;
29320;SDS011;16323;51.130;6.612;2022-12-07T04:47:42;4.55;;;2.63;;
29320;SDS011;16323;51.130;6.612;2022-12-07T04:50:09;3.85;;;2.47;;
29320;SDS011;16323;51.130;6.612;2022-12-07T04:52:37;4.53;;;2.50;;
29320;SDS011;16323;51.130;6.612;2022-12-07T04:55:04;3.20;;;2.20;;
29320;SDS011;16323;51.130;6.612;2022-12-07T04:57:31;4.72;;;2.25;;
29320;SDS011;16323;51.130;6.612;2022-12-07T04:59:59;3.50;;;2.13;;
29320;SDS011;16323;51.130;6.612;2022-12-07T05:02:25;5.00;;;2.60;;
29320;SDS011;16323;51.130;6.612;2022-12-07T05:04:52;3.15;;;2.08;;
29320;SDS011;16323;51.130;6.612;2022-12-07T05:07:19;2.75;;;1.80;;
29320;SDS011;16323;51.130;6.612;2022-12-07T05:09:47;3.92;;;2.50;;
29320;SDS011;16323;51.130;6.612;2022-12-07T05:12:14;2.65;;;2.03;;
29320;SDS011;16323;51.130;6.612;2022-12-07T05:14:41;3.28;;;1.98;;
29320;SDS011;16323;51.130;6.612;2022-12-07T05:17:08;2.70;;;2.08;;
29320;SDS011;16323;51.130;6.612;2022-12-07T05:19:36;2.25;;;1.80;;
29320;SDS011;16323;51.130;6.612;2022-12-07T05:22:03;2.45;;;1.70;;
29320;SDS011;16323;51.130;6.612;2022-12-07T05:24:30;2.88;;;1.88;;
29320;SDS011;16323;51.130;6.612;2022-12-07T05:26:58;2.55;;;1.77;;
29320;SDS011;16323;51.130;6.612;2022-12-07T05:29:25;2.65;;;1.80;;
29320;SDS011;16323;51.130;6.612;2022-12-07T05:31:51;3.45;;;1.95;;
29320;SDS011;16323;51.130;6.612;2022-12-07T05:34:18;3.60;;;1.90;;
29320;SDS011;16323;51.130;6.612;2022-12-07T05:36:45;2.63;;;1.58;;
29320;SDS011;16323;51.130;6.612;2022-12-07T05:39:12;2.40;;;1.70;;
29320;SDS011;16323;51.130;6.612;2022-12-07T05:41:38;3.08;;;1.92;;
29320;SDS011;16323;51.130;6.612;2022-12-07T05:44:24;2.20;;;1.63;;
29320;SDS011;16323;51.130;6.612;2022-12-07T05:46:51;2.60;;;1.88;;
29320;SDS011;16323;51.130;6.612;2022-12-07T05:49:17;2.60;;;1.88;;
29320;SDS011;16323;51.130;6.612;2022-12-07T05:51:44;3.45;;;1.92;;
29320;SDS011;16323;51.130;6.612;2022-12-07T05:54:11;2.45;;;1.88;;
29320;SDS011;16323;51.130;6.612;2022-12-07T05:56:38;2.63;;;1.75;;
29320;SDS011;16323;51.130;6.612;2022-12-07T05:59:04;3.38;;;1.80;;
29320;SDS011;16323;51.130;6.612;2022-12-07T06:01:51;2.97;;;1.42;;
29320;SDS011;16323;51.130;6.612;2022-12-07T06:04:19;2.72;;;1.77;;
29320;SDS011;16323;51.130;6.612;2022-12-07T06:06:47;2.58;;;1.83;;
29320;SDS011;16323;51.130;6.612;2022-12-07T06:09:13;1.73;;;1.50;;
29320;SDS011;16323;51.130;6.612;2022-12-07T06:11:41;2.65;;;1.50;;
29320;SDS011;16323;51.130;6.612;2022-12-07T06:14:26;2.38;;;1.73;;
29320;SDS011;16323;51.130;6.612;2022-12-07T06:16:54;1.70;;;1.50;;
29320;SDS011;16323;51.130;6.612;2022-12-07T06:19:21;2.28;;;1.60;;
29320;SDS011;16323;51.130;6.612;2022-12-07T06:21:47;2.75;;;1.98;;
29320;SDS011;16323;51.130;6.612;2022-12-07T06:24:15;2.88;;;1.63;;
29320;SDS011;16323;51.130;6.612;2022-12-07T06:26:42;3.25;;;1.67;;
29320;SDS011;16323;51.130;6.612;2022-12-07T06:29:10;2.90;;;1.67;;
29320;SDS011;16323;51.130;6.612;2022-12-07T06:31:37;3.42;;;2.08;;
29320;SDS011;16323;51.130;6.612;2022-12-07T06:34:06;3.17;;;2.08;;
29320;SDS011;16323;51.130;6.612;2022-12-07T06:36:35;2.70;;;1.70;;
29320;SDS011;16323;51.130;6.612;2022-12-07T06:39:02;3.53;;;1.95;;
29320;SDS011;16323;51.130;6.612;2022-12-07T06:41:30;3.97;;;2.00;;
29320;SDS011;16323;51.130;6.612;2022-12-07T06:43:57;2.45;;;1.65;;
29320;SDS011;16323;51.130;6.612;2022-12-07T06:46:24;2.28;;;1.30;;
29320;SDS011;16323;51.130;6.612;2022-12-07T06:48:50;3.00;;;1.67;;
29320;SDS011;16323;51.130;6.612;2022-12-07T06:51:18;2.05;;;1.23;;
29320;SDS011;16323;51.130;6.612;2022-12-07T06:53:45;3.45;;;1.40;;
29320;SDS011;16323;51.130;6.612;2022-12-07T06:56:12;1.95;;;1.33;;
29320;SDS011;16323;51.130;6.612;2022-12-07T06:58:39;2.30;;;1.60;;
29320;SDS011;16323;51.130;6.612;2022-12-07T07:01:08;1.77;;;1.20;;
29320;SDS011;16323;51.130;6.612;2022-12-07T07:03:36;2.65;;;1.50;;
29320;SDS011;16323;51.130;6.612;2022-12-07T07:06:03;2.35;;;1.50;;
29320;SDS011;16323;51.130;6.612;2022-12-07T07:08:31;3.70;;;1.63;;
29320;SDS011;16323;51.130;6.612;2022-12-07T07:10:58;3.65;;;1.67;;
29320;SDS011;16323;51.130;6.612;2022-12-07T07:13:25;2.05;;;1.60;;
29320;SDS011;16323;51.130;6.612;2022-12-07T07:15:52;2.88;;;1.48;;
29320;SDS011;16323;51.130;6.612;2022-12-07T07:18:19;2.65;;;1.60;;
29320;SDS011;16323;51.130;6.612;2022-12-07T07:20:46;1.92;;;1.35;;
29320;SDS011;16323;51.130;6.612;2022-12-07T07:23:12;2.75;;;1.58;;
29320;SDS011;16323;51.130;6.612;2022-12-07T07:25:41;2.78;;;1.30;;
29320;SDS011;16323;51.130;6.612;2022-12-07T07:28:08;1.75;;;1.38;;
29320;SDS011;16323;51.130;6.612;2022-12-07T07:30:34;2.45;;;1.38;;
29320;SDS011;16323;51.130;6.612;2022-12-07T07:33:01;1.10;;;1.00;;
29320;SDS011;16323;51.130;6.612;2022-12-07T07:35:31;2.13;;;1.20;;
29320;SDS011;16323;51.130;6.612;2022-12-07T07:37:59;1.65;;;1.20;;
29320;SDS011;16323;51.130;6.612;2022-12-07T07:40:26;1.75;;;1.27;;
29320;SDS011;16323;51.130;6.612;2022-12-07T07:42:55;1.92;;;1.35;;
29320;SDS011;16323;51.130;6.612;2022-12-07T07:45:22;2.72;;;1.50;;
29320;SDS011;16323;51.130;6.612;2022-12-07T07:47:51;5.82;;;1.55;;
29320;SDS011;16323;51.130;6.612;2022-12-07T07:50:19;2.50;;;1.35;;
29320;SDS011;16323;51.130;6.612;2022-12-07T07:52:46;1.83;;;1.38;;
29320;SDS011;16323;51.130;6.612;2022-12-07T07:55:13;2.85;;;1.30;;
29320;SDS011;16323;51.130;6.612;2022-12-07T07:57:41;2.53;;;1.38;;
29320;SDS011;16323;51.130;6.612;2022-12-07T08:00:10;3.30;;;1.30;;
29320;SDS011;16323;51.130;6.612;2022-12-07T08:02:38;1.98;;;1.17;;
29320;SDS011;16323;51.130;6.612;2022-12-07T08:05:05;2.80;;;1.40;;
29320;SDS011;16323;51.130;6.612;2022-12-07T08:07:33;3.05;;;1.70;;
29320;SDS011;16323;51.130;6.612;2022-12-07T08:10:00;2.53;;;1.38;;
29320;SDS011;16323;51.130;6.612;2022-12-07T08:12:26;3.03;;;1.58;;
29320;SDS011;16323;51.130;6.612;2022-12-07T08:14:53;2.17;;;1.55;;
29320;SDS011;16323;51.130;6.612;2022-12-07T08:17:21;3.03;;;1.88;;
29320;SDS011;16323;51.130;6.612;2022-12-07T08:19:48;2.85;;;1.45;;
29320;SDS011;16323;51.130;6.612;2022-12-07T08:22:15;2.75;;;1.77;;
29320;SDS011;16323;51.130;6.612;2022-12-07T08:24:42;2.95;;;1.70;;
29320;SDS011;16323;51.130;6.612;2022-12-07T08:27:09;3.28;;;1.75;;
29320;SDS011;16323;51.130;6.612;2022-12-07T08:29:36;2.53;;;1.60;;
29320;SDS011;16323;51.130;6.612;2022-12-07T08:32:03;2.42;;;1.60;;
29320;SDS011;16323;51.130;6.612;2022-12-07T08:34:31;3.53;;;1.52;;
29320;SDS011;16323;51.130;6.612;2022-12-07T08:36:58;2.40;;;1.38;;
29320;SDS011;16323;51.130;6.612;2022-12-07T08:39:25;3.65;;;1.77;;
29320;SDS011;16323;51.130;6.612;2022-12-07T08:41:52;2.10;;;1.50;;
29320;SDS011;16323;51.130;6.612;2022-12-07T08:44:18;3.08;;;1.63;;
29320;SDS011;16323;51.130;6.612;2022-12-07T08:46:46;2.00;;;1.50;;
29320;SDS011;16323;51.130;6.612;2022-12-07T08:49:16;5.80;;;2.03;;
29320;SDS011;16323;51.130;6.612;2022-12-07T08:51:49;3.05;;;1.77;;
29320;SDS011;16323;51.130;6.612;2022-12-07T08:54:16;3.35;;;1.85;;
29320;SDS011;16323;51.130;6.612;2022-12-07T08:56:44;3.10;;;1.80;;
29320;SDS011;16323;51.130;6.612;2022-12-07T08:59:12;2.58;;;1.98;;
29320;SDS011;16323;51.130;6.612;2022-12-07T09:01:42;2.95;;;2.08;;
29320;SDS011;16323;51.130;6.612;2022-12-07T09:04:09;3.33;;;2.00;;
29320;SDS011;16323;51.130;6.612;2022-12-07T09:06:36;2.60;;;1.83;;
29320;SDS011;16323;51.130;6.612;2022-12-07T09:09:04;3.17;;;1.90;;
29320;SDS011;16323;51.130;6.612;2022-12-07T09:11:32;2.58;;;1.70;;
29320;SDS011;16323;51.130;6.612;2022-12-07T09:13:59;3.20;;;2.10;;
29320;SDS011;16323;51.130;6.612;2022-12-07T09:16:26;2.42;;;1.75;;
29320;SDS011;16323;51.130;6.612;2022-12-07T09:18:53;2.58;;;1.85;;
29320;SDS011;16323;51.130;6.612;2022-12-07T09:21:20;3.20;;;1.92;;
29320;SDS011;16323;51.130;6.612;2022-12-07T09:23:47;2.92;;;1.92;;
29320;SDS011;16323;51.130;6.612;2022-12-07T09:26:15;3.15;;;1.90;;
29320;SDS011;16323;51.130;6.612;2022-12-07T09:28:43;2.47;;;1.60;;
29320;SDS011;16323;51.130;6.612;2022-12-07T09:31:09;3.42;;;2.05;;
29320;SDS011;16323;51.130;6.612;2022-12-07T09:33:36;4.18;;;1.83;;
29320;SDS011;16323;51.130;6.612;2022-12-07T09:36:04;3.15;;;1.77;;
29320;SDS011;16323;51.130;6.612;2022-12-07T09:38:31;4.82;;;1.75;;
29320;SDS011;16323;51.130;6.612;2022-12-07T09:40:58;3.50;;;1.50;;
29320;SDS011;16323;51.130;6.612;2022-12-07T09:43:31;3.75;;;1.90;;
29320;SDS011;16323;51.130;6.612;2022-12-07T09:45:59;2.00;;;1.45;;
29320;SDS011;16323;51.130;6.612;2022-12-07T09:48:28;2.65;;;1.80;;
29320;SDS011;16323;51.130;6.612;2022-12-07T09:50:58;3.65;;;1.67;;
29320;SDS011;16323;51.130;6.612;2022-12-07T09:53:28;2.30;;;1.73;;
29320;SDS011;16323;51.130;6.612;2022-12-07T09:55:56;3.47;;;1.95;;
29320;SDS011;16323;51.130;6.612;2022-12-07T09:58:24;2.28;;;1.60;;
29320;SDS011;16323;51.130;6.612;2022-12-07T10:00:54;2.72;;;1.73;;
29320;SDS011;16323;51.130;6.612;2022-12-07T10:03:23;2.50;;;1.95;;
29320;SDS011;16323;51.130;6.612;2022-12-07T10:05:52;2.53;;;1.70;;
29320;SDS011;16323;51.130;6.612;2022-12-07T10:08:19;3.00;;;1.80;;
29320;SDS011;16323;51.130;6.612;2022-12-07T10:10:48;2.47;;;1.70;;
29320;SDS011;16323;51.130;6.612;2022-12-07T10:13:18;2.67;;;1.73;;
29320;SDS011;16323;51.130;6.612;2022-12-07T10:15:47;2.88;;;1.77;;
29320;SDS011;16323;51.130;6.612;2022-12-07T10:21:10;3.72;;;1.75;;
29320;SDS011;16323;51.130;6.612;2022-12-07T10:23:39;2.22;;;1.38;;
29320;SDS011;16323;51.130;6.612;2022-12-07T10:26:25;2.22;;;1.50;;
29320;SDS011;16323;51.130;6.612;2022-12-07T10:28:54;2.95;;;1.60;;
29320;SDS011;16323;51.130;6.612;2022-12-07T10:31:24;2.28;;;1.70;;
29320;SDS011;16323;51.130;6.612;2022-12-07T10:33:53;2.80;;;1.77;;
29320;SDS011;16323;51.130;6.612;2022-12-07T10:36:22;4.70;;;1.90;;
29320;SDS011;16323;51.130;6.612;2022-12-07T10:38:51;2.78;;;1.80;;
29320;SDS011;16323;51.130;6.612;2022-12-07T10:41:20;3.67;;;1.80;;
29320;SDS011;16323;51.130;6.612;2022-12-07T10:43:47;2.83;;;1.80;;
29320;SDS011;16323;51.130;6.612;2022-12-07T10:46:36;3.58;;;1.88;;
29320;SDS011;16323;51.130;6.612;2022-12-07T10:49:34;3.55;;;2.03;;
29320;SDS011;16323;51.130;6.612;2022-12-07T10:52:22;2.47;;;1.45;;
29320;SDS011;16323;51.130;6.612;2022-12-07T10:55:03;5.35;;;2.25;;
29320;SDS011;16323;51.130;6.612;2022-12-07T10:57:43;2.70;;;1.75;;
29320;SDS011;16323;51.130;6.612;2022-12-07T11:00:23;3.35;;;1.75;;
29320;SDS011;16323;51.130;6.612;2022-12-07T11:05:49;3.17;;;1.63;;
29320;SDS011;16323;51.130;6.612;2022-12-07T11:08:33;2.83;;;1.60;;
29320;SDS011;16323;51.130;6.612;2022-12-07T11:11:13;2.63;;;1.58;;
29320;SDS011;16323;51.130;6.612;2022-12-07T11:13:44;3.03;;;1.67;;
29320;SDS011;16323;51.130;6.612;2022-12-07T11:16:21;3.30;;;1.70;;
29320;SDS011;16323;51.130;6.612;2022-12-07T11:18:58;4.22;;;2.08;;
29320;SDS011;16323;51.130;6.612;2022-12-07T11:21:35;4.05;;;1.70;;
29320;SDS011;16323;51.130;6.612;2022-12-07T11:24:11;2.72;;;1.58;;
29320;SDS011;16323;51.130;6.612;2022-12-07T11:26:46;2.17;;;1.70;;
29320;SDS011;16323;51.130;6.612;2022-12-07T11:29:37;2.75;;;1.80;;
29320;SDS011;16323;51.130;6.612;2022-12-07T11:32:14;3.63;;;1.70;;
29320;SDS011;16323;51.130;6.612;2022-12-07T11:34:49;2.83;;;1.95;;
29320;SDS011;16323;51.130;6.612;2022-12-07T11:37:27;3.85;;;1.75;;
29320;SDS011;16323;51.130;6.612;2022-12-07T11:39:59;2.72;;;1.73;;
29320;SDS011;16323;51.130;6.612;2022-12-07T11:42:29;2.97;;;1.98;;
29320;SDS011;16323;51.130;6.612;2022-12-07T11:45:00;4.20;;;2.00;;
29320;SDS011;16323;51.130;6.612;2022-12-07T11:47:38;2.95;;;1.77;;
29320;SDS011;16323;51.130;6.612;2022-12-07T11:50:15;2.90;;;1.80;;
29320;SDS011;16323;51.130;6.612;2022-12-07T11:52:58;3.38;;;1.77;;
29320;SDS011;16323;51.130;6.612;2022-12-07T11:55:30;2.55;;;1.80;;
29320;SDS011;16323;51.130;6.612;2022-12-07T11:58:11;3.20;;;1.67;;
29320;SDS011;16323;51.130;6.612;2022-12-07T12:00:47;2.92;;;1.55;;
29320;SDS011;16323;51.130;6.612;2022-12-07T12:03:15;2.60;;;1.48;;
29320;SDS011;16323;51.130;6.612;2022-12-07T12:05:49;3.00;;;1.80;;
29320;SDS011;16323;51.130;6.612;2022-12-07T12:08:17;2.72;;;1.70;;
29320;SDS011;16323;51.130;6.612;2022-12-07T12:10:52;2.40;;;1.35;;
29320;SDS011;16323;51.130;6.612;2022-12-07T12:13:29;2.45;;;1.52;;
29320;SDS011;16323;51.130;6.612;2022-12-07T12:16:20;2.33;;;1.40;;
29320;SDS011;16323;51.130;6.612;2022-12-07T12:19:10;3.95;;;2.10;;
29320;SDS011;16323;51.130;6.612;2022-12-07T12:21:49;3.15;;;1.60;;
29320;SDS011;16323;51.130;6.612;2022-12-07T12:24:22;5.22;;;1.60;;
29320;SDS011;16323;51.130;6.612;2022-12-07T12:26:51;2.47;;;1.55;;
29320;SDS011;16323;51.130;6.612;2022-12-07T12:29:26;3.63;;;1.80;;
29320;SDS011;16323;51.130;6.612;2022-12-07T12:32:07;2.22;;;1.63;;
29320;SDS011;16323;51.130;6.612;2022-12-07T12:34:40;1.95;;;1.20;;
29320;SDS011;16323;51.130;6.612;2022-12-07T12:37:40;3.83;;;1.77;;
29320;SDS011;16323;51.130;6.612;2022-12-07T12:49:14;2.95;;;1.50;;
29320;SDS011;16323;51.130;6.612;2022-12-07T12:51:59;4.20;;;1.60;;
29320;SDS011;16323;51.130;6.612;2022-12-07T12:54:29;2.28;;;1.40;;
29320;SDS011;16323;51.130;6.612;2022-12-07T12:56:59;3.03;;;1.60;;
29320;SDS011;16323;51.130;6.612;2022-12-07T12:59:32;2.80;;;1.50;;
29320;SDS011;16323;51.130;6.612;2022-12-07T13:02:14;2.95;;;1.35;;
29320;SDS011;16323;51.130;6.612;2022-12-07T13:04:51;3.00;;;1.40;;
29320;SDS011;16323;51.130;6.612;2022-12-07T13:07:47;2.45;;;1.40;;
29320;SDS011;16323;51.130;6.612;2022-12-07T13:10:38;2.95;;;1.50;;
29320;SDS011;16323;51.130;6.612;2022-12-07T13:13:31;2.67;;;1.50;;
29320;SDS011;16323;51.130;6.612;2022-12-07T13:19:21;2.20;;;1.45;;
29320;SDS011;16323;51.130;6.612;2022-12-07T13:25:18;3.05;;;1.58;;
29320;SDS011;16323;51.130;6.612;2022-12-07T13:27:50;2.65;;;1.27;;
29320;SDS011;16323;51.130;6.612;2022-12-07T13:30:24;2.35;;;1.10;;
29320;SDS011;16323;51.130;6.612;2022-12-07T13:32:52;1.95;;;1.17;;
29320;SDS011;16323;51.130;6.612;2022-12-07T13:35:29;2.22;;;1.20;;
29320;SDS011;16323;51.130;6.612;2022-12-07T13:37:58;2.22;;;1.27;;
29320;SDS011;16323;51.130;6.612;2022-12-07T13:40:27;1.80;;;1.13;;
29320;SDS011;16323;51.130;6.612;2022-12-07T13:42:57;2.20;;;1.33;;
29320;SDS011;16323;51.130;6.612;2022-12-07T13:45:27;2.58;;;1.35;;
29320;SDS011;16323;51.130;6.612;2022-12-07T13:48:16;3.08;;;0.93;;
29320;SDS011;16323;51.130;6.612;2022-12-07T13:50:52;1.88;;;1.33;;
29320;SDS011;16323;51.130;6.612;2022-12-07T13:53:19;1.85;;;1.23;;
29320;SDS011;16323;51.130;6.612;2022-12-07T13:55:46;2.35;;;1.13;;
29320;SDS011;16323;51.130;6.612;2022-12-07T13:58:14;1.77;;;1.10;;
29320;SDS011;16323;51.130;6.612;2022-12-07T14:00:42;2.22;;;1.20;;
29320;SDS011;16323;51.130;6.612;2022-12-07T14:03:25;1.65;;;0.82;;
29320;SDS011;16323;51.130;6.612;2022-12-07T14:06:11;2.45;;;1.40;;
29320;SDS011;16323;51.130;6.612;2022-12-07T14:08:41;3.15;;;1.30;;
29320;SDS011;16323;51.130;6.612;2022-12-07T14:11:09;1.75;;;1.05;;
29320;SDS011;16323;51.130;6.612;2022-12-07T14:13:44;2.25;;;1.30;;
29320;SDS011;16323;51.130;6.612;2022-12-07T14:16:21;1.50;;;1.17;;
29320;SDS011;16323;51.130;6.612;2022-12-07T14:18:50;3.90;;;1.33;;
29320;SDS011;16323;51.130;6.612;2022-12-07T14:21:20;2.47;;;1.42;;
29320;SDS011;16323;51.130;6.612;2022-12-07T14:24:02;2.30;;;1.33;;
29320;SDS011;16323;51.130;6.612;2022-12-07T14:26:37;2.28;;;1.27;;
29320;SDS011;16323;51.130;6.612;2022-12-07T14:29:19;1.55;;;1.23;;
29320;SDS011;16323;51.130;6.612;2022-12-07T14:32:01;1.98;;;1.20;;
29320;SDS011;16323;51.130;6.612;2022-12-07T14:34:52;1.88;;;1.10;;
29320;SDS011;16323;51.130;6.612;2022-12-07T14:37:27;1.15;;;0.88;;
29320;SDS011;16323;51.130;6.612;2022-12-07T14:39:55;3.22;;;1.33;;
29320;SDS011;16323;51.130;6.612;2022-12-07T14:42:22;1.92;;;1.10;;
29320;SDS011;16323;51.130;6.612;2022-12-07T14:44:53;1.23;;;0.82;;
29320;SDS011;16323;51.130;6.612;2022-12-07T14:47:21;2.05;;;1.05;;
29320;SDS011;16323;51.130;6.612;2022-12-07T14:49:48;1.55;;;1.05;;
29320;SDS011;16323;51.130;6.612;2022-12-07T14:52:16;1.35;;;0.85;;
29320;SDS011;16323;51.130;6.612;2022-12-07T14:54:45;1.35;;;0.90;;
29320;SDS011;16323;51.130;6.612;2022-12-07T14:57:12;1.35;;;0.77;;
29320;SDS011;16323;51.130;6.612;2022-12-07T14:59:38;1.42;;;1.00;;
29320;SDS011;16323;51.130;6.612;2022-12-07T15:02:06;1.05;;;0.88;;
29320;SDS011;16323;51.130;6.612;2022-12-07T15:04:36;0.90;;;0.80;;
29320;SDS011;16323;51.130;6.612;2022-12-07T15:07:04;2.00;;;0.88;;
29320;SDS011;16323;51.130;6.612;2022-12-07T15:09:31;1.42;;;0.80;;
29320;SDS011;16323;51.130;6.612;2022-12-07T15:11:58;1.67;;;1.10;;
29320;SDS011;16323;51.130;6.612;2022-12-07T15:14:25;2.90;;;0.90;;
29320;SDS011;16323;51.130;6.612;2022-12-07T15:16:52;1.45;;;0.85;;
29320;SDS011;16323;51.130;6.612;2022-12-07T15:19:19;2.28;;;1.05;;
29320;SDS011;16323;51.130;6.612;2022-12-07T15:21:52;1.20;;;0.90;;
29320;SDS011;16323;51.130;6.612;2022-12-07T15:24:19;2.22;;;1.08;;
29320;SDS011;16323;51.130;6.612;2022-12-07T15:26:48;2.47;;;0.80;;
29320;SDS011;16323;51.130;6.612;2022-12-07T15:29:15;1.10;;;0.70;;
29320;SDS011;16323;51.130;6.612;2022-12-07T15:31:42;1.50;;;0.73;;